sensor_id;sensor_type;location;lat;lon;timestamp;P1;durP1;ratioP1;P2;durP2;ratioP2
40599;SDS011;26309;50.924;4.754;2023-05-10T00:01:32;15.02;;;12.20;;
40599;SDS011;26309;50.924;4.754;2023-05-10T00:03:58;20.23;;;13.48;;
40599;SDS011;26309;50.924;4.754;2023-05-10T00:06:23;17.67;;;13.23;;
40599;SDS011;26309;50.924;4.754;2023-05-10T00:08:49;19.10;;;13.73;;
40599;SDS011;26309;50.924;4.754;2023-05-10T00:11:15;21.10;;;13.52;;
40599;SDS011;26309;50.924;4.754;2023-05-10T00:13:41;19.02;;;13.55;;
40599;SDS011;26309;50.924;4.754;2023-05-10T00:16:06;23.80;;;12.77;;
40599;SDS011;26309;50.924;4.754;2023-05-10T00:18:32;23.60;;;12.93;;
40599;SDS011;26309;50.924;4.754;2023-05-10T00:20:58;18.20;;;11.48;;
40599;SDS011;26309;50.924;4.754;2023-05-10T00:23:24;16.20;;;11.23;;
40599;SDS011;26309;50.924;4.754;2023-05-10T00:25:50;16.48;;;10.93;;
40599;SDS011;26309;50.924;4.754;2023-05-10T00:28:16;15.30;;;10.93;;
40599;SDS011;26309;50.924;4.754;2023-05-10T00:30:41;19.10;;;11.52;;
40599;SDS011;26309;50.924;4.754;2023-05-10T00:33:07;24.38;;;11.23;;
40599;SDS011;26309;50.924;4.754;2023-05-10T00:35:33;18.73;;;11.43;;
40599;SDS011;26309;50.924;4.754;2023-05-10T00:37:59;17.52;;;10.40;;
40599;SDS011;26309;50.924;4.754;2023-05-10T00:40:25;18.52;;;10.50;;
40599;SDS011;26309;50.924;4.754;2023-05-10T00:42:51;15.85;;;10.00;;
40599;SDS011;26309;50.924;4.754;2023-05-10T00:45:16;18.23;;;10.40;;
40599;SDS011;26309;50.924;4.754;2023-05-10T00:47:42;24.05;;;10.77;;
40599;SDS011;26309;50.924;4.754;2023-05-10T00:50:08;20.25;;;10.93;;
40599;SDS011;26309;50.924;4.754;2023-05-10T00:52:34;21.55;;;10.95;;
40599;SDS011;26309;50.924;4.754;2023-05-10T00:55:00;19.42;;;11.90;;
40599;SDS011;26309;50.924;4.754;2023-05-10T00:57:27;19.95;;;11.13;;
40599;SDS011;26309;50.924;4.754;2023-05-10T00:59:53;19.83;;;11.80;;
40599;SDS011;26309;50.924;4.754;2023-05-10T01:02:19;27.00;;;12.25;;
40599;SDS011;26309;50.924;4.754;2023-05-10T01:04:45;21.30;;;11.95;;
40599;SDS011;26309;50.924;4.754;2023-05-10T01:07:11;23.63;;;11.68;;
40599;SDS011;26309;50.924;4.754;2023-05-10T01:09:37;18.95;;;12.23;;
40599;SDS011;26309;50.924;4.754;2023-05-10T01:12:03;23.55;;;12.57;;
40599;SDS011;26309;50.924;4.754;2023-05-10T01:14:32;22.83;;;12.95;;
40599;SDS011;26309;50.924;4.754;2023-05-10T01:17:01;22.08;;;13.35;;
40599;SDS011;26309;50.924;4.754;2023-05-10T01:19:28;23.80;;;13.73;;
40599;SDS011;26309;50.924;4.754;2023-05-10T01:22:02;25.58;;;14.18;;
40599;SDS011;26309;50.924;4.754;2023-05-10T01:24:58;21.35;;;13.07;;
40599;SDS011;26309;50.924;4.754;2023-05-10T01:27:45;23.08;;;12.90;;
40599;SDS011;26309;50.924;4.754;2023-05-10T01:33:05;23.88;;;13.18;;
40599;SDS011;26309;50.924;4.754;2023-05-10T01:38:22;22.83;;;13.30;;
40599;SDS011;26309;50.924;4.754;2023-05-10T01:41:14;23.10;;;13.82;;
40599;SDS011;26309;50.924;4.754;2023-05-10T01:46:35;20.08;;;14.43;;
40599;SDS011;26309;50.924;4.754;2023-05-10T01:49:16;24.92;;;14.68;;
40599;SDS011;26309;50.924;4.754;2023-05-10T01:51:56;24.30;;;15.73;;
40599;SDS011;26309;50.924;4.754;2023-05-10T01:54:29;22.85;;;14.77;;
40599;SDS011;26309;50.924;4.754;2023-05-10T01:57:05;22.60;;;15.23;;
40599;SDS011;26309;50.924;4.754;2023-05-10T01:59:34;23.90;;;15.43;;
40599;SDS011;26309;50.924;4.754;2023-05-10T02:02:02;27.33;;;16.65;;
40599;SDS011;26309;50.924;4.754;2023-05-10T02:04:29;29.98;;;17.08;;
40599;SDS011;26309;50.924;4.754;2023-05-10T02:06:56;28.25;;;16.13;;
40599;SDS011;26309;50.924;4.754;2023-05-10T02:09:23;23.95;;;16.42;;
40599;SDS011;26309;50.924;4.754;2023-05-10T02:11:53;24.15;;;15.45;;
40599;SDS011;26309;50.924;4.754;2023-05-10T02:14:20;28.92;;;16.08;;
40599;SDS011;26309;50.924;4.754;2023-05-10T02:16:49;31.90;;;16.63;;
40599;SDS011;26309;50.924;4.754;2023-05-10T02:19:18;27.20;;;17.00;;
40599;SDS011;26309;50.924;4.754;2023-05-10T02:21:45;25.23;;;16.17;;
40599;SDS011;26309;50.924;4.754;2023-05-10T02:24:11;25.35;;;16.40;;
40599;SDS011;26309;50.924;4.754;2023-05-10T02:26:39;27.65;;;17.15;;
40599;SDS011;26309;50.924;4.754;2023-05-10T02:29:07;22.70;;;16.02;;
40599;SDS011;26309;50.924;4.754;2023-05-10T02:31:34;27.33;;;17.00;;
40599;SDS011;26309;50.924;4.754;2023-05-10T02:34:00;25.63;;;17.77;;
40599;SDS011;26309;50.924;4.754;2023-05-10T02:36:27;28.35;;;17.00;;
40599;SDS011;26309;50.924;4.754;2023-05-10T02:38:54;28.20;;;18.67;;
40599;SDS011;26309;50.924;4.754;2023-05-10T02:41:21;27.63;;;18.60;;
40599;SDS011;26309;50.924;4.754;2023-05-10T02:43:50;28.80;;;17.75;;
40599;SDS011;26309;50.924;4.754;2023-05-10T02:46:17;28.80;;;18.40;;
40599;SDS011;26309;50.924;4.754;2023-05-10T02:48:44;24.33;;;18.38;;
40599;SDS011;26309;50.924;4.754;2023-05-10T02:51:10;29.38;;;17.98;;
40599;SDS011;26309;50.924;4.754;2023-05-10T02:53:40;29.40;;;18.95;;
40599;SDS011;26309;50.924;4.754;2023-05-10T02:56:11;27.50;;;18.90;;
40599;SDS011;26309;50.924;4.754;2023-05-10T02:58:45;29.38;;;19.45;;
40599;SDS011;26309;50.924;4.754;2023-05-10T03:01:11;35.50;;;18.40;;
40599;SDS011;26309;50.924;4.754;2023-05-10T03:03:37;29.35;;;18.60;;
40599;SDS011;26309;50.924;4.754;2023-05-10T03:06:03;27.27;;;18.15;;
40599;SDS011;26309;50.924;4.754;2023-05-10T03:08:29;27.35;;;18.45;;
40599;SDS011;26309;50.924;4.754;2023-05-10T03:10:59;25.45;;;18.48;;
40599;SDS011;26309;50.924;4.754;2023-05-10T03:16:38;25.88;;;18.05;;
40599;SDS011;26309;50.924;4.754;2023-05-10T03:19:26;26.52;;;18.02;;
40599;SDS011;26309;50.924;4.754;2023-05-10T03:21:58;23.67;;;16.95;;
40599;SDS011;26309;50.924;4.754;2023-05-10T03:24:27;33.67;;;16.95;;
40599;SDS011;26309;50.924;4.754;2023-05-10T03:26:55;28.88;;;17.52;;
40599;SDS011;26309;50.924;4.754;2023-05-10T03:29:25;24.52;;;16.52;;
40599;SDS011;26309;50.924;4.754;2023-05-10T03:31:51;23.63;;;16.08;;
40599;SDS011;26309;50.924;4.754;2023-05-10T03:34:22;24.25;;;16.20;;
40599;SDS011;26309;50.924;4.754;2023-05-10T03:36:49;27.35;;;17.73;;
40599;SDS011;26309;50.924;4.754;2023-05-10T03:39:15;28.52;;;17.20;;
40599;SDS011;26309;50.924;4.754;2023-05-10T03:41:41;24.00;;;15.77;;
40599;SDS011;26309;50.924;4.754;2023-05-10T03:44:06;24.92;;;16.00;;
40599;SDS011;26309;50.924;4.754;2023-05-10T03:46:32;24.30;;;16.05;;
40599;SDS011;26309;50.924;4.754;2023-05-10T03:48:58;25.55;;;15.73;;
40599;SDS011;26309;50.924;4.754;2023-05-10T03:51:24;23.77;;;15.95;;
40599;SDS011;26309;50.924;4.754;2023-05-10T03:53:53;29.25;;;16.52;;
40599;SDS011;26309;50.924;4.754;2023-05-10T03:56:20;22.25;;;16.05;;
40599;SDS011;26309;50.924;4.754;2023-05-10T03:58:46;29.48;;;16.00;;
40599;SDS011;26309;50.924;4.754;2023-05-10T04:01:12;25.52;;;16.05;;
40599;SDS011;26309;50.924;4.754;2023-05-10T04:03:38;25.23;;;17.13;;
40599;SDS011;26309;50.924;4.754;2023-05-10T04:06:04;29.23;;;17.90;;
40599;SDS011;26309;50.924;4.754;2023-05-10T04:08:30;30.98;;;17.77;;
40599;SDS011;26309;50.924;4.754;2023-05-10T04:11:29;31.38;;;17.90;;
40599;SDS011;26309;50.924;4.754;2023-05-10T04:13:49;28.85;;;19.70;;
40599;SDS011;26309;50.924;4.754;2023-05-10T04:16:15;30.77;;;20.67;;
40599;SDS011;26309;50.924;4.754;2023-05-10T04:18:41;29.38;;;20.05;;
40599;SDS011;26309;50.924;4.754;2023-05-10T04:21:11;34.65;;;21.13;;
40599;SDS011;26309;50.924;4.754;2023-05-10T04:23:39;34.28;;;21.45;;
40599;SDS011;26309;50.924;4.754;2023-05-10T04:26:05;30.45;;;21.20;;
40599;SDS011;26309;50.924;4.754;2023-05-10T04:28:31;37.30;;;22.60;;
40599;SDS011;26309;50.924;4.754;2023-05-10T04:31:01;38.75;;;23.63;;
40599;SDS011;26309;50.924;4.754;2023-05-10T04:33:27;43.88;;;24.02;;
40599;SDS011;26309;50.924;4.754;2023-05-10T04:35:53;40.92;;;22.95;;
40599;SDS011;26309;50.924;4.754;2023-05-10T04:38:19;40.03;;;25.20;;
40599;SDS011;26309;50.924;4.754;2023-05-10T04:40:46;45.55;;;25.10;;
40599;SDS011;26309;50.924;4.754;2023-05-10T04:43:12;48.97;;;26.42;;
40599;SDS011;26309;50.924;4.754;2023-05-10T04:45:38;46.33;;;26.52;;
40599;SDS011;26309;50.924;4.754;2023-05-10T04:48:04;45.20;;;27.40;;
40599;SDS011;26309;50.924;4.754;2023-05-10T04:50:30;46.13;;;28.35;;
40599;SDS011;26309;50.924;4.754;2023-05-10T04:52:56;47.53;;;27.42;;
40599;SDS011;26309;50.924;4.754;2023-05-10T04:55:22;48.70;;;28.08;;
40599;SDS011;26309;50.924;4.754;2023-05-10T04:57:48;55.17;;;29.38;;
40599;SDS011;26309;50.924;4.754;2023-05-10T05:00:14;54.38;;;29.38;;
40599;SDS011;26309;50.924;4.754;2023-05-10T05:02:44;55.85;;;31.58;;
40599;SDS011;26309;50.924;4.754;2023-05-10T05:05:11;62.33;;;33.53;;
40599;SDS011;26309;50.924;4.754;2023-05-10T05:07:37;63.80;;;34.83;;
40599;SDS011;26309;50.924;4.754;2023-05-10T05:10:06;66.30;;;36.20;;
40599;SDS011;26309;50.924;4.754;2023-05-10T05:15:11;78.47;;;39.38;;
40599;SDS011;26309;50.924;4.754;2023-05-10T05:17:37;80.78;;;38.75;;
40599;SDS011;26309;50.924;4.754;2023-05-10T05:20:03;76.65;;;38.60;;
40599;SDS011;26309;50.924;4.754;2023-05-10T05:22:30;73.15;;;37.15;;
40599;SDS011;26309;50.924;4.754;2023-05-10T05:24:56;73.20;;;37.95;;
40599;SDS011;26309;50.924;4.754;2023-05-10T05:27:23;83.70;;;39.38;;
40599;SDS011;26309;50.924;4.754;2023-05-10T05:29:54;76.15;;;37.88;;
40599;SDS011;26309;50.924;4.754;2023-05-10T05:32:21;70.82;;;36.03;;
40599;SDS011;26309;50.924;4.754;2023-05-10T05:34:47;66.97;;;36.95;;
40599;SDS011;26309;50.924;4.754;2023-05-10T05:37:17;71.90;;;36.70;;
40599;SDS011;26309;50.924;4.754;2023-05-10T05:39:44;79.90;;;37.53;;
40599;SDS011;26309;50.924;4.754;2023-05-10T05:42:11;65.93;;;35.30;;
40599;SDS011;26309;50.924;4.754;2023-05-10T05:44:38;69.45;;;35.70;;
40599;SDS011;26309;50.924;4.754;2023-05-10T05:47:04;67.88;;;34.70;;
40599;SDS011;26309;50.924;4.754;2023-05-10T05:49:31;64.05;;;34.33;;
40599;SDS011;26309;50.924;4.754;2023-05-10T05:52:01;61.63;;;32.92;;
40599;SDS011;26309;50.924;4.754;2023-05-10T05:54:28;61.85;;;33.25;;
40599;SDS011;26309;50.924;4.754;2023-05-10T05:56:54;64.65;;;32.83;;
40599;SDS011;26309;50.924;4.754;2023-05-10T05:59:21;57.72;;;31.13;;
40599;SDS011;26309;50.924;4.754;2023-05-10T06:01:47;56.35;;;31.85;;
40599;SDS011;26309;50.924;4.754;2023-05-10T06:04:14;55.05;;;30.20;;
40599;SDS011;26309;50.924;4.754;2023-05-10T06:06:40;47.88;;;28.25;;
40599;SDS011;26309;50.924;4.754;2023-05-10T06:09:05;46.30;;;29.23;;
40599;SDS011;26309;50.924;4.754;2023-05-10T06:11:31;47.50;;;29.15;;
40599;SDS011;26309;50.924;4.754;2023-05-10T06:13:57;48.83;;;27.88;;
40599;SDS011;26309;50.924;4.754;2023-05-10T06:16:24;45.10;;;27.83;;
40599;SDS011;26309;50.924;4.754;2023-05-10T06:18:50;45.58;;;27.63;;
40599;SDS011;26309;50.924;4.754;2023-05-10T06:21:16;43.40;;;27.08;;
40599;SDS011;26309;50.924;4.754;2023-05-10T06:23:42;47.80;;;29.08;;
40599;SDS011;26309;50.924;4.754;2023-05-10T06:26:08;42.00;;;27.75;;
40599;SDS011;26309;50.924;4.754;2023-05-10T06:28:35;40.33;;;27.27;;
40599;SDS011;26309;50.924;4.754;2023-05-10T06:31:03;45.47;;;28.90;;
40599;SDS011;26309;50.924;4.754;2023-05-10T06:33:29;41.78;;;27.40;;
40599;SDS011;26309;50.924;4.754;2023-05-10T06:35:55;43.58;;;26.88;;
40599;SDS011;26309;50.924;4.754;2023-05-10T06:38:21;41.65;;;27.15;;
40599;SDS011;26309;50.924;4.754;2023-05-10T06:40:47;41.08;;;26.50;;
40599;SDS011;26309;50.924;4.754;2023-05-10T06:43:14;42.63;;;26.38;;
40599;SDS011;26309;50.924;4.754;2023-05-10T06:45:40;42.22;;;26.48;;
40599;SDS011;26309;50.924;4.754;2023-05-10T06:48:06;40.28;;;26.45;;
40599;SDS011;26309;50.924;4.754;2023-05-10T06:50:32;41.35;;;26.20;;
40599;SDS011;26309;50.924;4.754;2023-05-10T06:52:59;42.10;;;26.80;;
40599;SDS011;26309;50.924;4.754;2023-05-10T06:55:25;40.67;;;25.42;;
40599;SDS011;26309;50.924;4.754;2023-05-10T06:57:51;40.63;;;25.60;;
40599;SDS011;26309;50.924;4.754;2023-05-10T07:00:18;44.30;;;27.63;;
40599;SDS011;26309;50.924;4.754;2023-05-10T07:02:45;43.63;;;27.77;;
40599;SDS011;26309;50.924;4.754;2023-05-10T07:05:12;43.67;;;27.45;;
40599;SDS011;26309;50.924;4.754;2023-05-10T07:07:38;46.83;;;28.00;;
40599;SDS011;26309;50.924;4.754;2023-05-10T07:10:04;38.03;;;26.15;;
40599;SDS011;26309;50.924;4.754;2023-05-10T07:12:31;39.17;;;27.15;;
40599;SDS011;26309;50.924;4.754;2023-05-10T07:14:57;36.90;;;26.25;;
40599;SDS011;26309;50.924;4.754;2023-05-10T07:17:23;39.67;;;26.30;;
40599;SDS011;26309;50.924;4.754;2023-05-10T07:19:49;36.97;;;25.08;;
40599;SDS011;26309;50.924;4.754;2023-05-10T07:22:15;35.55;;;25.17;;
40599;SDS011;26309;50.924;4.754;2023-05-10T07:24:41;34.00;;;24.50;;
40599;SDS011;26309;50.924;4.754;2023-05-10T07:27:08;28.05;;;21.92;;
40599;SDS011;26309;50.924;4.754;2023-05-10T07:29:34;28.05;;;17.92;;
40599;SDS011;26309;50.924;4.754;2023-05-10T07:32:01;18.90;;;14.13;;
40599;SDS011;26309;50.924;4.754;2023-05-10T07:34:26;19.90;;;13.20;;
40599;SDS011;26309;50.924;4.754;2023-05-10T07:36:58;16.88;;;12.35;;
40599;SDS011;26309;50.924;4.754;2023-05-10T07:39:24;19.58;;;12.02;;
40599;SDS011;26309;50.924;4.754;2023-05-10T07:41:50;15.27;;;10.85;;
40599;SDS011;26309;50.924;4.754;2023-05-10T07:44:20;17.63;;;10.93;;
40599;SDS011;26309;50.924;4.754;2023-05-10T07:46:46;17.23;;;11.38;;
40599;SDS011;26309;50.924;4.754;2023-05-10T07:49:12;20.00;;;11.73;;
40599;SDS011;26309;50.924;4.754;2023-05-10T07:51:38;16.17;;;10.23;;
40599;SDS011;26309;50.924;4.754;2023-05-10T07:54:04;17.23;;;9.82;;
40599;SDS011;26309;50.924;4.754;2023-05-10T07:56:30;15.15;;;9.82;;
40599;SDS011;26309;50.924;4.754;2023-05-10T07:59:01;13.07;;;9.40;;
40599;SDS011;26309;50.924;4.754;2023-05-10T08:01:32;14.40;;;10.57;;
40599;SDS011;26309;50.924;4.754;2023-05-10T08:03:59;17.30;;;10.50;;
40599;SDS011;26309;50.924;4.754;2023-05-10T08:06:25;13.88;;;9.80;;
40599;SDS011;26309;50.924;4.754;2023-05-10T08:08:56;19.85;;;10.27;;
40599;SDS011;26309;50.924;4.754;2023-05-10T08:11:22;13.43;;;10.27;;
40599;SDS011;26309;50.924;4.754;2023-05-10T08:13:49;17.40;;;11.07;;
40599;SDS011;26309;50.924;4.754;2023-05-10T08:16:16;18.73;;;11.00;;
40599;SDS011;26309;50.924;4.754;2023-05-10T08:18:42;19.25;;;11.18;;
40599;SDS011;26309;50.924;4.754;2023-05-10T08:21:09;16.23;;;10.90;;
40599;SDS011;26309;50.924;4.754;2023-05-10T08:23:39;20.80;;;12.90;;
40599;SDS011;26309;50.924;4.754;2023-05-10T08:26:05;21.80;;;12.98;;
40599;SDS011;26309;50.924;4.754;2023-05-10T08:28:31;22.33;;;13.52;;
40599;SDS011;26309;50.924;4.754;2023-05-10T08:30:57;19.73;;;13.82;;
40599;SDS011;26309;50.924;4.754;2023-05-10T08:33:23;20.35;;;14.10;;
40599;SDS011;26309;50.924;4.754;2023-05-10T08:35:49;24.33;;;13.80;;
40599;SDS011;26309;50.924;4.754;2023-05-10T08:38:15;25.38;;;14.75;;
40599;SDS011;26309;50.924;4.754;2023-05-10T08:40:41;23.65;;;14.57;;
40599;SDS011;26309;50.924;4.754;2023-05-10T08:43:11;21.38;;;14.32;;
40599;SDS011;26309;50.924;4.754;2023-05-10T08:45:44;18.80;;;13.30;;
40599;SDS011;26309;50.924;4.754;2023-05-10T08:48:13;21.98;;;13.77;;
40599;SDS011;26309;50.924;4.754;2023-05-10T08:50:41;23.90;;;13.75;;
40599;SDS011;26309;50.924;4.754;2023-05-10T08:53:11;22.08;;;13.85;;
40599;SDS011;26309;50.924;4.754;2023-05-10T08:55:39;20.90;;;13.07;;
40599;SDS011;26309;50.924;4.754;2023-05-10T08:58:07;18.35;;;12.45;;
40599;SDS011;26309;50.924;4.754;2023-05-10T09:00:34;16.40;;;10.90;;
40599;SDS011;26309;50.924;4.754;2023-05-10T09:03:02;18.05;;;11.40;;
40599;SDS011;26309;50.924;4.754;2023-05-10T09:05:29;17.85;;;11.30;;
40599;SDS011;26309;50.924;4.754;2023-05-10T09:07:55;15.88;;;10.75;;
40599;SDS011;26309;50.924;4.754;2023-05-10T09:10:21;15.65;;;11.32;;
40599;SDS011;26309;50.924;4.754;2023-05-10T09:12:51;15.35;;;10.50;;
40599;SDS011;26309;50.924;4.754;2023-05-10T09:15:18;14.43;;;9.85;;
40599;SDS011;26309;50.924;4.754;2023-05-10T09:17:45;17.98;;;9.98;;
40599;SDS011;26309;50.924;4.754;2023-05-10T09:20:11;17.33;;;10.48;;
40599;SDS011;26309;50.924;4.754;2023-05-10T09:22:37;13.70;;;9.60;;
40599;SDS011;26309;50.924;4.754;2023-05-10T09:25:07;13.80;;;10.20;;
40599;SDS011;26309;50.924;4.754;2023-05-10T09:27:35;14.13;;;10.48;;
40599;SDS011;26309;50.924;4.754;2023-05-10T09:30:04;13.80;;;9.68;;
40599;SDS011;26309;50.924;4.754;2023-05-10T09:32:41;12.95;;;9.73;;
40599;SDS011;26309;50.924;4.754;2023-05-10T09:35:15;15.98;;;9.65;;
40599;SDS011;26309;50.924;4.754;2023-05-10T09:37:43;12.48;;;8.60;;
40599;SDS011;26309;50.924;4.754;2023-05-10T09:40:12;12.30;;;8.82;;
40599;SDS011;26309;50.924;4.754;2023-05-10T09:45:23;13.57;;;9.70;;
40599;SDS011;26309;50.924;4.754;2023-05-10T09:47:50;14.10;;;9.70;;
40599;SDS011;26309;50.924;4.754;2023-05-10T09:50:16;11.70;;;9.30;;
40599;SDS011;26309;50.924;4.754;2023-05-10T09:52:46;12.05;;;9.32;;
40599;SDS011;26309;50.924;4.754;2023-05-10T09:55:19;14.02;;;9.32;;
40599;SDS011;26309;50.924;4.754;2023-05-10T09:57:47;13.40;;;8.98;;
40599;SDS011;26309;50.924;4.754;2023-05-10T10:00:20;13.50;;;8.48;;
40599;SDS011;26309;50.924;4.754;2023-05-10T10:02:47;10.15;;;8.27;;
40599;SDS011;26309;50.924;4.754;2023-05-10T10:05:19;11.57;;;7.47;;
40599;SDS011;26309;50.924;4.754;2023-05-10T10:07:46;10.43;;;7.25;;
40599;SDS011;26309;50.924;4.754;2023-05-10T10:10:15;10.90;;;7.32;;
40599;SDS011;26309;50.924;4.754;2023-05-10T10:12:41;8.50;;;6.63;;
40599;SDS011;26309;50.924;4.754;2023-05-10T10:15:08;9.55;;;6.45;;
40599;SDS011;26309;50.924;4.754;2023-05-10T10:17:35;7.57;;;6.28;;
40599;SDS011;26309;50.924;4.754;2023-05-10T10:20:03;10.98;;;6.15;;
40599;SDS011;26309;50.924;4.754;2023-05-10T10:22:29;12.35;;;6.60;;
40599;SDS011;26309;50.924;4.754;2023-05-10T10:24:56;6.65;;;5.78;;
40599;SDS011;26309;50.924;4.754;2023-05-10T10:27:29;10.05;;;6.18;;
40599;SDS011;26309;50.924;4.754;2023-05-10T10:30:40;6.95;;;5.95;;
40599;SDS011;26309;50.924;4.754;2023-05-10T10:33:29;7.55;;;6.30;;
40599;SDS011;26309;50.924;4.754;2023-05-10T10:36:00;9.15;;;6.40;;
40599;SDS011;26309;50.924;4.754;2023-05-10T10:38:36;8.80;;;6.50;;
40599;SDS011;26309;50.924;4.754;2023-05-10T10:41:10;8.80;;;6.32;;
40599;SDS011;26309;50.924;4.754;2023-05-10T10:47:11;8.10;;;6.00;;
40599;SDS011;26309;50.924;4.754;2023-05-10T10:50:06;7.07;;;5.65;;
40599;SDS011;26309;50.924;4.754;2023-05-10T10:52:40;6.78;;;5.28;;
40599;SDS011;26309;50.924;4.754;2023-05-10T10:57:44;6.88;;;5.07;;
40599;SDS011;26309;50.924;4.754;2023-05-10T11:00:20;5.43;;;4.70;;
40599;SDS011;26309;50.924;4.754;2023-05-10T11:05:39;6.20;;;4.07;;
40599;SDS011;26309;50.924;4.754;2023-05-10T11:08:12;4.13;;;3.72;;
40599;SDS011;26309;50.924;4.754;2023-05-10T11:16:20;4.78;;;3.20;;
40599;SDS011;26309;50.924;4.754;2023-05-10T11:19:02;5.60;;;2.90;;
40599;SDS011;26309;50.924;4.754;2023-05-10T11:21:32;4.28;;;3.03;;
40599;SDS011;26309;50.924;4.754;2023-05-10T11:23:59;3.70;;;2.53;;
40599;SDS011;26309;50.924;4.754;2023-05-10T11:26:31;2.63;;;2.08;;
40599;SDS011;26309;50.924;4.754;2023-05-10T11:28:59;2.35;;;2.10;;
40599;SDS011;26309;50.924;4.754;2023-05-10T11:31:27;2.25;;;2.05;;
40599;SDS011;26309;50.924;4.754;2023-05-10T11:33:54;2.10;;;1.85;;
40599;SDS011;26309;50.924;4.754;2023-05-10T11:36:26;2.25;;;1.80;;
40599;SDS011;26309;50.924;4.754;2023-05-10T11:38:54;2.35;;;1.40;;
40599;SDS011;26309;50.924;4.754;2023-05-10T11:41:23;1.30;;;1.20;;
40599;SDS011;26309;50.924;4.754;2023-05-10T11:43:50;3.45;;;1.20;;
40599;SDS011;26309;50.924;4.754;2023-05-10T11:46:18;4.20;;;1.33;;
40599;SDS011;26309;50.924;4.754;2023-05-10T11:48:45;1.65;;;1.50;;
40599;SDS011;26309;50.924;4.754;2023-05-10T11:51:20;2.50;;;1.25;;
40599;SDS011;26309;50.924;4.754;2023-05-10T11:53:50;4.25;;;1.33;;
40599;SDS011;26309;50.924;4.754;2023-05-10T11:56:19;2.47;;;1.48;;
40599;SDS011;26309;50.924;4.754;2023-05-10T11:58:47;1.45;;;1.10;;
40599;SDS011;26309;50.924;4.754;2023-05-10T12:01:21;1.20;;;1.10;;
40599;SDS011;26309;50.924;4.754;2023-05-10T12:03:48;1.30;;;1.20;;
40599;SDS011;26309;50.924;4.754;2023-05-10T12:06:15;1.23;;;1.17;;
40599;SDS011;26309;50.924;4.754;2023-05-10T12:08:44;2.50;;;1.75;;
40599;SDS011;26309;50.924;4.754;2023-05-10T12:11:17;1.48;;;1.38;;
40599;SDS011;26309;50.924;4.754;2023-05-10T12:13:44;1.60;;;1.50;;
40599;SDS011;26309;50.924;4.754;2023-05-10T12:16:24;3.58;;;1.65;;
40599;SDS011;26309;50.924;4.754;2023-05-10T12:18:55;2.80;;;2.00;;
40599;SDS011;26309;50.924;4.754;2023-05-10T12:21:29;2.00;;;1.80;;
40599;SDS011;26309;50.924;4.754;2023-05-10T12:24:02;2.13;;;1.90;;
40599;SDS011;26309;50.924;4.754;2023-05-10T12:26:32;4.25;;;2.10;;
40599;SDS011;26309;50.924;4.754;2023-05-10T12:29:17;2.72;;;1.80;;
40599;SDS011;26309;50.924;4.754;2023-05-10T12:31:57;3.05;;;2.08;;
40599;SDS011;26309;50.924;4.754;2023-05-10T12:34:30;2.70;;;1.90;;
40599;SDS011;26309;50.924;4.754;2023-05-10T12:36:57;4.10;;;2.63;;
40599;SDS011;26309;50.924;4.754;2023-05-10T12:39:24;2.40;;;2.20;;
40599;SDS011;26309;50.924;4.754;2023-05-10T12:41:50;3.90;;;2.55;;
40599;SDS011;26309;50.924;4.754;2023-05-10T12:44:17;4.18;;;2.63;;
40599;SDS011;26309;50.924;4.754;2023-05-10T12:46:43;3.92;;;2.55;;
40599;SDS011;26309;50.924;4.754;2023-05-10T12:49:09;3.10;;;2.80;;
40599;SDS011;26309;50.924;4.754;2023-05-10T12:51:35;3.40;;;3.10;;
40599;SDS011;26309;50.924;4.754;2023-05-10T12:54:02;4.55;;;3.38;;
40599;SDS011;26309;50.924;4.754;2023-05-10T12:56:28;5.53;;;3.40;;
40599;SDS011;26309;50.924;4.754;2023-05-10T12:58:54;4.88;;;3.10;;
40599;SDS011;26309;50.924;4.754;2023-05-10T13:01:19;3.22;;;2.92;;
40599;SDS011;26309;50.924;4.754;2023-05-10T13:03:45;3.88;;;2.80;;
40599;SDS011;26309;50.924;4.754;2023-05-10T13:06:11;4.07;;;2.30;;
40599;SDS011;26309;50.924;4.754;2023-05-10T13:08:39;6.13;;;2.45;;
40599;SDS011;26309;50.924;4.754;2023-05-10T13:11:05;4.65;;;2.33;;
40599;SDS011;26309;50.924;4.754;2023-05-10T13:13:31;2.60;;;2.40;;
40599;SDS011;26309;50.924;4.754;2023-05-10T13:15:57;3.83;;;2.33;;
40599;SDS011;26309;50.924;4.754;2023-05-10T13:18:23;3.25;;;2.50;;
40599;SDS011;26309;50.924;4.754;2023-05-10T13:20:49;5.15;;;2.88;;
40599;SDS011;26309;50.924;4.754;2023-05-10T13:23:15;3.25;;;2.40;;
40599;SDS011;26309;50.924;4.754;2023-05-10T13:25:41;3.88;;;3.10;;
40599;SDS011;26309;50.924;4.754;2023-05-10T13:28:06;3.33;;;2.50;;
40599;SDS011;26309;50.924;4.754;2023-05-10T13:30:32;3.65;;;2.95;;
40599;SDS011;26309;50.924;4.754;2023-05-10T13:32:58;3.60;;;2.83;;
40599;SDS011;26309;50.924;4.754;2023-05-10T13:35:24;4.53;;;3.20;;
40599;SDS011;26309;50.924;4.754;2023-05-10T13:37:51;3.83;;;3.20;;
40599;SDS011;26309;50.924;4.754;2023-05-10T13:40:18;4.65;;;3.40;;
40599;SDS011;26309;50.924;4.754;2023-05-10T13:42:44;4.97;;;2.80;;
40599;SDS011;26309;50.924;4.754;2023-05-10T13:45:10;4.60;;;3.22;;
40599;SDS011;26309;50.924;4.754;2023-05-10T13:47:38;3.75;;;2.53;;
40599;SDS011;26309;50.924;4.754;2023-05-10T13:50:04;5.68;;;2.97;;
40599;SDS011;26309;50.924;4.754;2023-05-10T13:52:30;3.10;;;2.80;;
40599;SDS011;26309;50.924;4.754;2023-05-10T13:54:57;3.65;;;2.75;;
40599;SDS011;26309;50.924;4.754;2023-05-10T13:57:25;3.80;;;2.88;;
40599;SDS011;26309;50.924;4.754;2023-05-10T13:59:52;2.88;;;2.47;;
40599;SDS011;26309;50.924;4.754;2023-05-10T14:02:18;2.60;;;2.20;;
40599;SDS011;26309;50.924;4.754;2023-05-10T14:04:44;5.28;;;2.67;;
40599;SDS011;26309;50.924;4.754;2023-05-10T14:07:09;3.85;;;2.80;;
40599;SDS011;26309;50.924;4.754;2023-05-10T14:09:36;4.80;;;2.72;;
40599;SDS011;26309;50.924;4.754;2023-05-10T14:12:01;2.55;;;2.35;;
40599;SDS011;26309;50.924;4.754;2023-05-10T14:14:27;2.60;;;2.40;;
40599;SDS011;26309;50.924;4.754;2023-05-10T14:16:54;4.57;;;2.30;;
40599;SDS011;26309;50.924;4.754;2023-05-10T14:19:20;4.22;;;2.50;;
40599;SDS011;26309;50.924;4.754;2023-05-10T14:21:48;3.00;;;2.70;;
40599;SDS011;26309;50.924;4.754;2023-05-10T14:24:14;3.40;;;3.10;;
40599;SDS011;26309;50.924;4.754;2023-05-10T14:26:40;2.83;;;2.60;;
40599;SDS011;26309;50.924;4.754;2023-05-10T14:29:06;4.75;;;3.15;;
40599;SDS011;26309;50.924;4.754;2023-05-10T14:31:33;6.03;;;2.58;;
40599;SDS011;26309;50.924;4.754;2023-05-10T14:33:59;3.85;;;2.70;;
40599;SDS011;26309;50.924;4.754;2023-05-10T14:36:25;4.15;;;2.80;;
40599;SDS011;26309;50.924;4.754;2023-05-10T14:38:50;3.42;;;3.13;;
40599;SDS011;26309;50.924;4.754;2023-05-10T14:41:17;5.15;;;3.58;;
40599;SDS011;26309;50.924;4.754;2023-05-10T14:43:43;6.00;;;3.60;;
40599;SDS011;26309;50.924;4.754;2023-05-10T14:46:09;3.83;;;3.22;;
40599;SDS011;26309;50.924;4.754;2023-05-10T14:48:35;4.15;;;3.20;;
40599;SDS011;26309;50.924;4.754;2023-05-10T14:51:04;4.43;;;3.20;;
40599;SDS011;26309;50.924;4.754;2023-05-10T14:53:30;6.13;;;3.28;;
40599;SDS011;26309;50.924;4.754;2023-05-10T14:55:55;3.30;;;3.00;;
40599;SDS011;26309;50.924;4.754;2023-05-10T14:58:22;4.57;;;3.45;;
40599;SDS011;26309;50.924;4.754;2023-05-10T15:00:48;4.85;;;3.28;;
40599;SDS011;26309;50.924;4.754;2023-05-10T15:03:13;3.97;;;2.78;;
40599;SDS011;26309;50.924;4.754;2023-05-10T15:05:39;5.10;;;3.13;;
40599;SDS011;26309;50.924;4.754;2023-05-10T15:08:06;5.50;;;4.10;;